METAR

RPLL (MNL) – NINOY AQUINO INTERNATIONAL AIRPORT (MANILA INTERNATIONAL AIRPORT)

METAR RPLL 191300Z 26003KT 9999 FEW025 BKN100 27/24 Q1011 NOSIG RMK A2985=

METAR RPLL 191200Z VRB02KT 9999 FEW023 SCT100 27/24 Q1010 NOSIG RMK A2983=

METAR RPLL 191100Z 00000KT 9999 FEW023 SCT100 27/24 Q1010 NOSIG RMK A2983=

METAR RPLL 191000Z VRB02KT 9999 FEW023 BKN100 27/24 Q1009 NOSIG RMK A2980=

METAR RPLL 190900Z VRB02KT 9999 FEW023 OVC100 28/24 Q1008 NOSIG RMK A2977=

METAR RPLL 190800Z 09003KT 050V140 9999 FEW023 OVC100 28/24 Q1008 NOSIG RMK A2977=

METAR RPLL 190700Z 15003KT 060V230 9999 FEW025 OVC100 28/24 Q1009 NOSIG RMK A2980=

METAR RPLL 190600Z 11003KT 080V140 9999 -RA SCT023 OVC090 26/25 Q1010 NOSIG RMK A2983=

METAR RPLL 190500Z 09005KT 060V120 9000 -RA SCT018 OVC090 27/25 Q1011 NOSIG RMK A2985=

METAR RPLL 190400Z 13006KT 070V160 9000 -RA SCT018 OVC090 27/26 Q1011 NOSIG RMK A2985=

SPECI RPLL 190315Z 10004KT 060V140 9999 -RA FEW023 OVC100 28/25 Q1012 NOSIG RMK A2988=

METAR RPLL 190300Z 12004KT 060V160 9999 FEW025 OVC100 28/25 Q1011 NOSIG RMK A2985 VCSH N=

METAR RPLL 190200Z 11004KT 070V170 9999 SCT025 OVC100 28/25 Q1011 NOSIG RMK A2985=
METAR RPLL 190100Z 12003KT 070V180 9999 -RA SCT018 OVC090 27/25 Q1011 NOSIG RMK A2985=
METAR RPLL 190000Z 12004KT 080V150 9999 -RA SCT018 OVC090 27/25 Q1011 NOSIG RMK A2985=
METAR RPLL 182300Z 09004KT 9999 VCSH SCT018 BKN090 27/25 Q1011 TEMPO 7000 -RA RMK A2985 VCSH E=
METAR RPLL 182200Z VRB02KT 9999 FEW025 BKN100 27/25 Q1009 NOSIG RMK A2980=
METAR RPLL 182100Z 00000KT 9999 FEW025 BKN100 27/25 Q1009 NOSIG RMK A2980=
METAR RPLL 182000Z VRB01KT 9999 FEW023 BKN090 27/26 Q1009 NOSIG RMK A2980=
METAR RPLL 181900Z 09003KT 050V130 9999 FEW025 BKN100 29/25 Q1009 NOSIG RMK A2980=
METAR RPLL 181800Z VRB02KT 9999 FEW025 BKN100 28/25 Q1009 NOSIG RMK A2980= 
METAR RPLL 181700Z 13002KT 9999 FEW025 SCT100 29/25 Q1010 NOSIG RMK A2983= 
METAR RPLL 181600Z VRB02KT 9999 FEW025 BKN250 29/25 Q1010 NOSIG RMK A2983= 
METAR RPLL 181500Z VRB02KT 9999 FEW025 BKN250 29/25 Q1010 NOSIG RMK A2983= 
METAR RPLL 181400Z 12004KT 070V100 9999 FEW025 SCT300 29/25 Q1011 NOSIG RMK A2985= 
METAR RPLL 181300Z 12003KT 090V170 9999 FEW025 30/25 Q1010 NOSIG RMK A2983=
METAR RPLL 181200Z 11003KT 070V150 9999 FEW025 SCT100 30/25 Q1010 NOSIG RMK A2983=
METAR RPLL 181100Z 12005KT 080V150 9999 FEW023CB FEW025 SCT100 31/25 Q1009 RMK A2980 CB/LTG OCNL SE,SW=
 

RPVM (CEB) – MACTAN-CEBU INTERNATIONAL (INTERNATIONAL AIRPORT)

METAR RPVM 191300Z VRB01KT 9999 FEW018CB OVC100 27/23 Q1011 RMK A2985 CB NE,NW=

METAR RPVM 191200Z VRB02KT 9999 FEW020 OVC100 26/23 Q1011 RMK A2985=

METAR RPVM 191100Z 29004KT 9999 FEW018CB OVC100 27/23 Q1010 RMK A2983 CB E,NW=

METAR RPVM 191000Z 25006KT 9999 SCT018CB OVC100 27/23 Q1009 RMK A2980 CB NE,S-W,NW=

METAR RPVM 190900Z 30004KT 270V330 9999 FEW018CB OVC100 28/22 Q1008 RMK A2977 CB SW-NW=

METAR RPVM 190800Z 03004KT 010V070 9999 FEW018CB OVC090 29/24 Q1008 RMK A2977 CB SW-N=

METAR RPVM 190700Z 07006KT 9999 FEW018CB OVC090 30/24 Q1008 RMK A2977 CB SW-NW=

METAR RPVM 190600Z 07007KT 040V100 9999 FEW018CB BKN250 30/24 Q1008 RMK A2977 CB SW-W,NW-N=

METAR RPVM 190500Z 13006KT 090V190 9999 FEW018CB SCT100 BKN250 30/24 Q1009 RMK A2980 CB NNW=

METAR RPVM 190400Z 09004KT 030V130 9999 FEW020 SCT100 BKN250 30/25 Q1010 RMK A2983=

METAR RPVM 190300Z VRB03KT 9999 SCT020 BKN250 29/25 Q1011 RESHRA RMK A2985=

METAR RPVM 190200Z 04007KT 8000 -SHRA FEW018CB OVC100 27/25 Q1011 RMK A2985 CB NW-NE/E-SE=
METAR RPVM 190100Z 04004KT 9999 FEW018CB OVC100 28/24 Q1011 RMK A2985 CB NE-SE=
METAR RPVM 190000Z VRB02KT 9999 FEW018CB BKN250 28/24 Q1011 RMK A2985 CB N-NE,E-SE=
METAR RPVM 182300Z 29002KT 9999 FEW018CB BKN250 25/23 Q1010 RMK A2983 CB NW-NE,SE=
METAR RPVM 182200Z 31003KT 9999 FEW020 BKN100 25/23 Q1009 RMK A2980=
METAR RPVM 182100Z VRB01KT 9999 FEW020 OVC250 26/23 Q1009 RMK A2980=
METAR RPVM 182000Z 30003KT 9999 FEW018CB OVC100 26/23 Q1009 RMK A2980 CB NW-N-NE=
METAR RPVM 181900Z 28002KT 9999 FEW018CB OVC100 26/23 Q1009 RMK A2980 CB N-NE=
METAR RPVM 181800Z 32002KT 9999 SCT018CB OVC100 26/24 Q1009 RMK A2980 CB N THRU E THRU S=
METAR RPVM 181700Z VRB02KT 9999 FEW018CB BKN100 26/24 Q1010 RMK A2983 CB N/NE-E/SE=
METAR RPVM 181600Z VRB02KT 9999 FEW018CB BKN100 26/24 Q1011 RMK A2985 CB NE-E/S/NW=
METAR RPVM 181500Z 29003KT 9999 FEW018CB SCT100 26/23 Q1011 RMK A2985 CB E/S=
METAR RPVM 181400Z 00000KT 9999 FEW018CB SCT100 27/24 Q1011 RMK A2985 CB NW THRU NE=
METAR RPVM 181300Z 23002KT 9999 FEW018CB SCT100 27/24 Q1011 RMK A2985 CB ENE=
METAR RPVM 181200Z 22005KT 9999 FEW020 BKN100 27/24 Q1010 RMK A2983=
METAR RPVM 181100Z 22003KT 200V270 9999 FEW018CB BKN100 28/24 Q1010 RMK A2983 CB SW=
 

RPLC (CRK) – CLARK INTERNATIONAL AIRPORT

METAR RPLC 191300Z 25003KT 9999 SCT020 BKN100 25/23 Q1012 NOSIG RMK A2988=

METAR RPLC 191200Z 27004KT 9999 SCT020 BKN100 25/23 Q1011 NOSIG RMK A2985=

METAR RPLC 191100Z 27002KT 9999 SCT020 BKN100 25/24 Q1011 NOSIG RMK A2985=

METAR RPLC 191000Z 30002KT 9999 SCT020 BKN100 26/24 Q1010 NOSIG RMK A2983=

METAR RPLC 190900Z 32002KT 9999 SCT020 BKN100 26/24 Q1009 NOSIG RMK A2980=

METAR RPLC 190800Z 32002KT 9999 SCT020 BKN100 26/24 Q1009 RERA RMK A2980=

METAR RPLC 190700Z 25004KT 8000 -RA SCT018 OVC100 25/24 Q1010 RMK A2983=

METAR RPLC 190600Z 16004KT 7000 -RA SCT018 OVC100 25/24 Q1011 RMK A2985=

METAR RPLC 190500Z 16006KT 7000 -RA SCT018 OVC100 27/24 Q1012 RMK A2988=

SPECI RPLC 190433Z 16004KT 8000 -RA SCT020 BKN100 29/25 Q1012 RMK A2988=

METAR RPLC 190400Z 11004KT 8000 SCT020 BKN100 29/24 Q1012 NOSIG RMK A2988=

METAR RPLC 190300Z 09002KT 9999 SCT020 BKN100 30/24 Q1012 NOSIG RMK A2988=

METAR RPLC 190200Z 18002KT 9999 SCT020 BKN100 29/24 Q1012 RERA RMK A2988=
METAR RPLC 190100Z 18002KT 8000 -RA SCT020 OVC100 27/25 Q1012 NOSIG RMK A2988=
METAR RPLC 190000Z 22002KT 9999 -RA SCT020 OVC100 27/24 Q1012 NOSIG RMK A2988=
METAR RPLC 182300Z 25002KT 9999 FEW020 BKN100 26/23 Q1011 NOSIG RMK A2985=
METAR RPLC 182200Z 25002KT 9999 FEW020 BKN300 25/23 Q1011 NOSIG RMK A2985=
METAR RPLC 182100Z 27002KT 9999 FEW020 BKN300 25/23 Q1010 NOSIG RMK A2983=
METAR RPLC 182000Z 27002KT 9999 FEW020 BKN300 25/23 Q1010 NOSIG RMK A2983=
METAR RPLC 181900Z 27002KT 9999 FEW020 BKN300 25/23 Q1011 NOSIG RMK A2985=
METAR RPLC 181800Z 27002KT 9999 FEW020 BKN300 26/23 Q1011 NOSIG RMK A2985=
METAR RPLC 181700Z 34002KT 9999 FEW020 BKN300 26/23 Q1011 NOSIG RMK A2985=
METAR RPLC 181600Z 27002KT 9999 FEW020 BKN300 26/23 Q1012 NOSIG RMK A2988=
METAR RPLC 181500Z 25004KT 9999 FEW020 BKN300 27/24 Q1012 NOSIG RMK A2988=
METAR RPLC 181400Z 22004KT 9999 FEW020 BKN300 27/24 Q1013 NOSIG RMK A2991=
METAR RPLC 181300Z 22001KT 9999 FEW020 BKN300 24/24 Q1012 NOSIG RMK A2988=
METAR RPLC  181200Z 25002KT 9999 FEW020 BKN300 28/25 Q1011 NOSIG RMK A2985=
METAR RPLC 181100Z  18004KT 9999 FEW020 BKN300 28/25 Q1011 NOSIG RMK A2985=
 

RPLB (SFS) – SUBIC BAY INTERNATIONAL AIRPORT

METAR RPLB 191300Z 06004KT 9999 FEW020 BKN080 25/23 Q1012 NOSIG RMK A2988=

METAR RPLB 191200Z 07003KT 9999 FEW020 BKN080 25/23 Q1011 NOSIG RMK A2985=

METAR RPLB 191100Z 06002KT 9999 FEW020 BKN080 26/22 Q1010 NOSIG RMK A2983=

METAR RPLB 191000Z 04003KT 020V090 9999 FEW020 BKN080 26/23 Q1009 NOSIG RMK A2980=

METAR RPLB 190900Z 07004KT 9999 FEW020 BKN080 26/23 Q1008 NOSIG RMK A2977=

METAR RPLB 190800Z 08006KT 9999 FEW020 BKN080 26/23 Q1009 NOSIG RMK A2980=

METAR RPLB 190700Z 06008KT 040V100 9999 FEW020 BKN080 27/23 Q1010 NOSIG RMK A2983=

METAR RPLB 190600Z 07011KT 9999 SCT020 BKN080 29/23 Q1011 NOSIG RMK A2985=

METAR RPLB 190500Z 06009KT 9999 SCT020 BKN080 30/24 Q1011 NOSIG RMK A2985=

METAR RPLB 190400Z 06007KT 030V090 9999 FEW020 BKN080 29/23 Q1012 NOSIG RMK A2988=

METAR RPLB 190300Z 05005KT 9999 FEW020 BKN080 29/24 Q1012 NOSIG RMK A2988=

METAR RPLB 190200Z VRB02KT 9999 FEW020 BKN080 28/24 Q1011 NOSIG RMK A2985=
METAR RPLB 190100Z 04005KT 020V090 9999 SCT020 BKN080 28/24 Q1012 NOSIG RMK A2988=
METAR RPLB 190000Z 08003KT 040V100 9999 SCT020 BKN080 27/24 Q1011 NOSIG RMK A2985=
METAR RPLB 182300Z 03004KT 9999 FEW020 BKN080 26/24 Q1010 NOSIG RMK A2983=
METAR RPLB 182200Z 05005KT 9999 FEW020 SCT300 25/25 Q1010 NOSIG RMK A2983=
METAR RPLB 182100Z 04004KT 9999 FEW020 SCT080 25/24 Q1009 NOSIG RMK A2980=
METAR RPLB 182000Z 04004KT 9999 FEW020 SCT080 25/25 Q1010 NOSIG RMK A2983=
METAR RPLB 181900Z 09003KT 9999 FEW020 BKN080 25/25 Q1010 NOSIG RMK A2983=
METAR RPLB 181800Z 05004KT 9999 FEW020 SCT080 BKN300 25/25 Q1010 NOSIG RMK A2983=
METAR RPLB 181700Z 04004KT 9999 FEW020 SCT080 BKN300 26/25 Q1011 NOSIG RMK A2985=
METAR RPLB 181600Z 05005KT 9999 FEW018CB FEW020 SCT080 26/24 Q1011 RMK A2985 CB/OCNL LTG NW=
METAR RPLB 181500Z 07007KT 9999 FEW018CB FEW020 BKN080 27/24 Q1011 RMK A2985 CB/FRQ LTG NW=
METAR RPLB 181400Z 08005KT 040V110 9999 FEW018CB FEW020 BKN080 28/24 Q1012 RMK A2988 CB NW W/ OCNL LTG=
 

RPLI (LAO) – LAOAG INTERNATIONAL AIRPORT

METAR RPLI 191200Z 14004KT 100V160 8000 FEW018 BKN270 26/25 Q1010 NOSIG RMK A2983=

METAR RPLI 191100Z VRB02KT 8000 FEW018 BKN280 26/25 Q1010 RETS RMK A2983=

METAR RPLI 191000Z 10004KT 8000 TS SCT017CB SCT100 BKN290 27/26 Q1009 RMK A2980 CB S-NW=

METAR RPLI 190900Z 18011KT 6000 TS VCSH SCT017CB BKN018 BKN100 27/26 Q1009  RMK A2980 CB SW-NW, VCSH N-E=

METAR RPLI 190800Z 25003KT 180V300 5000 -TSRA SCT017CB SCT018 BKN100 29/27 Q1009 RMK A2980 CB SE-SW,NW-NE=

METAR RPLI 190700Z 28007KT 220V340 8000 TS VCSH FEW017CB SCT018 BKN290 31/27 Q1008 NOSIG RMK A2977 CB/VCSH NNE-SE=

METAR RPLI 190600Z 28007KT 240V350 9999 SCT018TCU BKN290 32/28 Q1008 NOSIG RMK A2977 TCU NE,SE=

METAR RPLI 190500Z VRB06KT 9999 FEW018TCU BKN290 32/28 Q1009 NOSIG RMK A2980  TCU SE=

METAR RPLI 190400Z 28007KT 230V340 9999 FEW018 SCT290 31/27 Q1010 NOSIG RMK A2983=

METAR RPLI 190300Z 32006KT 280V360 9999 FEW018 SCT290 31/27 Q1010 NOSIG RMK A2983=

METAR RPLI 190200Z 32005KT 290V350 9999 FEW018 SCT290 31/27 Q1010 NOSIG RMK A2983=
METAR RPLI 190100Z 01004KT 320V070 9999 FEW018 SCT290 31/27 Q1010 NOSIG RMK A2983=
METAR RPLI 190000Z 11004KT 080V140 9999 FEW018 29/27 Q1010 NOSIG RMK A2983=
METAR RPLI 182300Z 11004KT 070V140 6000 FEW018 27/26 Q1009 NOSIG RMK A2980=
METAR RPLI 182200Z 08003KT 050V110 6000 FEW018 26/26 Q1009 NOSIG RMK A2980=
METAR RPLI 182100Z 09002KT 9999 FEW018 26/26 Q1009 NOSIG RMK A2980=
METAR RPLI 181800Z VRB02KT 9999 FEW018 27/26 Q1010 NOSIG RMK A2983=
METAR RPLI 181500Z 12004KT 9999 FEW018 BKN290 28/27 Q1011 NOSIG RMK A2985=
METAR RPLI 181200Z 16003KT 110V170 9999 FEW017CB BKN290 29/27 Q1010 NOSIG RMK A2983 CB S=
METAR RPLI 181100Z 17004KT 150V210 9999 FEW018 SCT100 30/27 Q1009 NOSIG RMK A2980=

RPVP (PPS) – PUERTO PRINCESA INTERNATIONAL AIRPORT

METAR RPVP 191200Z 27006KT 9999 SCT019 OVC080 27/23 Q1010 RMK A2983=

METAR RPVP 191100Z 36006KT 9999 SCT019 OVC080 28/23 Q1010 RMK A2983=

METAR RPVP 191000Z 36006KT 9999 FEW019 SCT080 OVC240 28/24 Q1009 RMK A2980=

METAR RPVP 190900Z 03006KT 9999 FEW017CB SCT080 OVC240 29/24 Q1009 RMK A2980 CB N-E=

METAR RPVP 190800Z 27006KT 9999 SCT019 OVC080 30/25 Q1008 RETS RMK A2977=

METAR RPVP 190700Z 21006KT 9999 FEW017CB SCT019 BKN080 30/24 Q1008 RMK A2977 CB N,ESE,SW=

METAR RPVP 190600Z 27008KT 9999 FEW017CB SCT019 30/23 Q1009 RMK A2980 CB SW=

METAR RPVP 190500Z 27008KT 9999 FEW017CB SCT019 31/23 Q1009 RMK A2980 CB/VCSH NNE,SW=

METAR RPVP 190400Z 18006KT 9999 FEW017CB 32/24 Q1010 RMK A2983 CB NW=

METAR RPVP 190300Z 18008KT 9999 FEW017CB 31/24 Q1010 RMK A2983 CB SW=

METAR RPVP 190200Z 12006KT 9999 FEW019 31/25 Q1010 RMK A2983=
METAR RPVP 190100Z 12004KT 9999 FEW019 30/25 Q1010 RMK A2983=
METAR RPVP 190000Z 21002KT 9999 FEW020 28/24 Q1010 RMK A2983=
METAR RPVP 182300Z 27006KT 9999 FEW019 26/23 Q1009 RMK A2980=
METAR RPVP 182200Z 27004KT 9999 FEW019 25/23 Q1009 RMK A2980=
METAR RPVP 182100Z 27002KT 9999 FEW019 25/23 Q1009 RMK A2980=
METAR RPVP 181800Z 27006KT 9999 FEW019 BKN080 25/23 Q1009 RMK A2980=
METAR RPVP 181500Z 27004KT 9999 FEW019 SCT240 26/23 Q1011 RMK A2985=
METAR RPVP 181200Z 27006KT 9999 FEW019 27/25 Q1010 RMK A2983=
METAR RPVP 181100Z 27004KT 9999 FEW019 28/24 Q11009 RMK A2980=
METAR RPVP 181000Z 21004KT 9999 FEW019 SCT250 29/24 Q1008 RMK A2977- 
METAR RPVP 180900Z 33006KT 9999 FEW019 SCT080 29/24 Q1008 RMK A2977=
METAR RPVP 180800Z 29006KT 9999 FEW019 SCT080 29/24 Q1008 RMK A2977=
METAR RPVP 180700Z 29010KT 9999 FEW019 SCT080 28/24 Q1008 RMK A2977=
METAR RPVP 180600Z 18008KT 9999 FEW019 SCT080 31/2 Q1008 RMK A2977=
METAR RPVP 180500Z 09010KT 9999 FEW019 SCT080 31/24 Q1008 RMK A2977=
METAR RPVP 180400Z 09010KT 9999 FEW019 31/25 Q1009 RMK A2980=
METAR RPVP 180300Z 09012KT 9999 FEW019 31/24 Q1009 RMK A2980=
METAR RPVP 180200Z 09008KT 9999 FEW017CB 30/24 Q1010 RMK A2983 CB NW=
METAR RPVP 180100Z 09008KT 9999 FEW019 30/24 Q1010 RMK A2983=
METAR RPVP 180000Z 33006KT 9999 FEW019 27/23 Q1009 RMK A2980=

RPVD (DGT) – SIBULAN AIRPORT (DUMAGUETE AIRPORT)

METAR RPVD 191200Z 32006KT 9999 SCT015 OVC070 28/26 Q1010 RMK A2983=

METAR RPVD 190900Z 32010KT 9999 VCSH FEW015TCU OVC070 28/24 Q1008 RMK A2977 TCU/VCSH N,S,WSW,NW=

METAR RPVD 190800Z 34004KT 9999 VCSH FDEW015TCU OVC070 29/24 Q1008 RMK A2977 TCU/VCSH S,WSW,NW=

METAR RPVD 190700Z 00000KT 9999 VCSH FEW015 BKN070 30/24 Q1007 RMK A2974 VCSH WSW=

METAR RPVD 190600Z 07006KT 9999 VCSH FEW014CB FEW015 OVC070 30/25 Q1008 RMK A2977 CB/VCSH SW-W=

METAR RPVD 190500Z 07004KT 9999 VCSH SCT015TCU BKN070 OVC220 30/25 Q1008 RMK A2977 TCU/VCSH SW,WNW=

METAR RPVD 190400Z 11008KT 99999 FEW015TCU BKN220 30/25 Q1009 RMK A2980 TCU WSW,NW=

METAR RPVD 190300Z 16006KT 9999 FEW015 BKN220 30/24 Q1010 RMK A2983=

METAR RPVD 190200Z 07006KT 9999 FEW015CB BKN220 31/25 Q1010 RMK A2983 TCU SW=
METAR RPVD 190100Z 00000KT 9999 VCSH FEW014CB FEW015 SCT220 29/26 Q1011 RMK A2985 CB/VCSH E=
METAR RPVD 190000Z 27004KT 9999 VCSH FEW014CB FEW015 27/24 Q1010 RMK A2983 CB/VCSH E=
METAR RPVD 182100Z 25004KT 9999 FEW015 24/23 Q1008 RMK A2977=
METAR RPVD 181800Z 27004KT 9999 FEW015 SCT070 BKN220 24/23 Q1009 RMK A2980=
METAR RPVD 181500Z 25004KT 9999 FEW015 BKN070 26/24 Q1011 RMK A2985=
METAR RPVD 181200Z 25004KT 9999  SCT015 OVC070 25/25 Q1010 RMK A2983=
METAR RPVD 181100Z 32004KT 8000 -TS/SHRA FEW014CB SCT015 OVC070 25/24 Q1008 RMK A2977 CB W-NW W/ OCNL TS=
METAR RPVD 180800Z 22012G18KT 9000 -TS/SHRA  FEW014CB SCT015 BKN070 28/24 Q1007 RMK A2974 CB NE/W/NW/NNW W/ OCNL TS=

RPMR (GES) – GENERAL SANTOS INTERNATIONAL AIRPORT

METAR RPMR 190900Z 33004KT 280V350 9999 VCSH FEW018 BKN080 27/23 Q1008 RMK A2977 VCSH NE,NW=

METAR RPMR 190800Z VRB02KT 9999 VCSH FEW018 SCT080 27/22 Q1008 RMK A2977 VCSH NW=

METAR RPMR 190700Z 24008KT 180V290 9999 VCSH FEW018CB SCT080 26/21 Q1008 RMK A2977 CB W, VCSH NW=

METAR RPMR 190600Z 15010KT 9999 VCSH FEW018CB SCT080 31/25 Q1009 RMK A2980 CB W, VCSH NW=

METAR RPMR 190500Z 13010KT 110V180 9999 VCSH FEW018 SCT080 31/24 Q1009 RMK A2980 VCSH NW=

METAR RPMR 190400Z 11005KT 080V160 9999 FEW018 BKN080 30/24 Q1010 RMK A2983=

METAR RPMR 190300Z 11005KT 060V170 9999 FEW018 BKN080 29/24 Q1010 RMK A2983=

METAR RPMR 190200Z VRB03KT 9999 FEW018 BKN080 28/24 Q1012 RMK A2988=
METAR RPMR 190100Z VRB01KT 9999 FEW018 BKN080 27/23 Q1012 RMK A2988=
METAR RPMR 190000Z 00000KT 9999 FEW018 BKN080 26/23 Q1012 RMK A2988=
METAR RPMR 180900Z 30005KT 9999 -RA SCT018 BKN080 24/23 Q1008 RMK A2977=
METAR RPMR 180800Z 31007KT 280V340 9999 -SHRA FEW016CB SCT018 BKN080 24/23 Q1008 RMK A2977 CB NNW=
METAR RPMR 180700Z 17008KT 9999 VCSH SCT018 BKN080 29/24 Q1007 RMK A2974 VCSH NW=
METAR RPMR 180600Z 16008KT 120V190 9999 FEW017TCU BKN080 31/22 Q1008 RMK A2977 TCU NNE=
METAR RPMR 180500Z 15008KT 130V190 9999 SCT018 BKN080 29/23 Q1009 RMK A2980=
METAR RPMR 180400Z 12006KT 050V180 9999 FEW018 SCT080 30/24 Q1009 RMK A2980=
METAR RPMR 180300Z VRB02KT 9999 FEW018 BKN080 29/24 Q1010 RMK A2983=
METAR RPMR 180200Z VRB03KT 9999 SCT018 BKN080 28/24 Q1011 RMK A2985=
METAR RPMR 180100Z VRB02KT 9999 FEW018 BKN080 27/24 Q1011 RMK A2985=

RPMD (DVO) – FRANCISCO BANGOY INTERNATIONAL AIRPORT

METAR RPMD 191300Z VRB02KT 7000 -TSRA SCT015CB OVC080 23/23 Q1013 RMK A2991 CB NE WITH LTG=

METAR RPMD 191200Z VRB03KT 5000 TSRA SCT015CB OVC080 23/23 Q1011 RMK A2985 CB N-NE,SE WITH LTG=

SPECI RPMD 191115Z 33011KT 290V030 6000 TSRA SCT015CB OVC080 24/24 Q1010 RMK A2983 CB NW-NE=

METAR RPMD 191100Z 02010KT 340V050 9000 -RA SCT015CB BKN080 OVC260 26/24 Q1010 RMK A2983 CB NW-NE,SE,WSW WITH OCNL LTG=

METAR RPMD 191000Z VRB02KT 9999 -RA FEW015CB FEW016 BKN080 OVC260 28/24 Q1008 RMK A2977 CB WSW WITH OCNL LTG=

METAR RPMD 190900Z 16007KT 9999 -RA SCT015 BKN080 BKN260 28/25 Q1007 RMK A2974=

METAR RPMD 190800Z 18005KT 150V210 9999 VCSH FEW015 SCT090 BKN260 30/25 Q1006 RMK A2971 VCSH E=

METAR RPMD 190700Z 17007KT 9999 VCSH SCT015 SCT090 BKN260 31/24 Q1007 RMK A2974 VCSH NE,E,W=

METAR RPMD 190600Z 17008KT 130V200 9999 VCSH FEW015 SCT290 32/23 Q1007 RMK A2974 VCSH NE,SW,NW=

METAR RPMD 190500Z 17006KT 130V200 9999 VCSH FEW015 SCT290 31/23 Q1008 RMK A2977 VCSH E=

METAR RPMD 190400Z 15007KT 110V170 9999 FEW016 SCT090 BKN260 30/23 Q1009 RMK A2980=

METAR RPMD 190300Z 15007KT 110V190 9999 VCSH FEW015 BKN260 30/24 Q1010 RMK A2983 VCSH NE,E=

METAR RPMD 190200Z VRB06KT 9999 VCSH FEW015 SCT090 BKN260 29/24 Q1011 RMK A2985 VCSH E/SE=
METAR RPMD 190100Z 16004KT 110V210 9999 VCSH SCT015 BKN260 29/24 Q1011 RMK A2985 DSTN PCPN NNW,W,E,SE=
METAR RPMD 190000Z VRB02KT 9999 VCSH FEW015 BKN260 27/25 Q1011 RMK A2985 DSTN PCPN SE=
METAR RPMD 182300Z VRB02KT 9999 VCSH FEW015 SCT090 BKN260 25/25 Q1011 RMK A2985 DSTN PCPN SE-S=
METAR RPMD 182200Z 31002KT 9999 FEW015 BKN090 BKN260 24/24 Q1010 RMK A2983=
METAR RPMD 182100Z 30002KT 9999 FEW016 BKN090 OVC260 24/24 Q1010 RERA RMK A2983=
METAR RPMD 182000Z 00000KT 9000 -RA FEW015 BKN080 OVC260 24/24 Q1010 RMK A2983=
METAR RPMD 181900Z 23002KT 8000 -RA FEW015 OVC090 24/24 Q1010 RMK A2983=
METAR RPMD 181800Z VRB02KT 9999 FEW016 OVC260 24/24 Q1010 RERA RMK A2983=
METAR RPMD 181700Z 00000KT 9000 -RA SCT016 OVC080 24/24 Q1011 RMK A2985=
METAR RPMD 181600Z VRB02KT 9999 -RA SCT016 BKN080 BKN260 24/24 Q1011 RMK A2985=
METAR RPMD 181500Z 35003KT 310V030 9999 SCT016 BKN090 OVC260 24/24 Q1012 RESHRA RMK A2988=
METAR RPMD 181400Z 02005KT 8000 -SHRA SCT015 BKN090 OVC260 25/25 RETS RMK A2991=
METAR RPMD 181300Z 01003KT 340V040 8000 -TSRA SCT015CB BKN080 OVC260 24/24 Q1013 RMK A2991 TS W/ OCNL LTG E-S=
METAR RPMD 181200Z 28005KT 220V330 8000 -TSRA SCT015CB OVC080 24/24 Q1011 RMK A2985 TS W/ LTG E-SW=
METAR RPMD 181100Z 03009KT 9999 SCT015CB BKN090 OVC260 27/24 Q1010 RMK A2983 CB NW-N W/ OCNL LTG=
METAR RPMD 181000Z 18007KT 9999 FEW015CB BKN090 BKN290 29/24 Q1009 RMK A2980 OCNL LTG NW/CB NW SW=
METAR RPMD 180900Z 16007KT 9999 SCT015CB BKN090 30/24 Q1007 RMK A2974 CB WNW/NW-NNW SE/S=


RPMZ (ZAM) – ZAMBOANGA INTERNATIONAL AIRPORT

METAR RPMZ 191200Z 00000KT 9999 FEW017 BKN090 27/23 Q1010 RMK A2983=

METAR RPMZ 191000Z 29005KT 9999 FEW017 SCT090 BKN300 28/24 Q1009 RMK A2980=

METAR RPMZ 190900Z 30005KT 9999 FEW017 BKN090 29/24 Q1008 RMK A2977=

METAR RPMZ 190800Z 29005KT 250V320 9999 FEW017 BKN090 30/24 Q1008 RMK A2977=

METAR RPMZ 190700Z 26004KT 200V290 9999 FEW017 BKN090 29/23 Q1008 RMK A2977=

METAR RPMZ 190600Z 21006KT 150V260 9999 FEW016CB FEW017 SCT090 30/23 Q1008 RMK A2977 CB NE=

METAR RPMZ 190500Z VRB09KT 9999 FEW016CB FEW017 30/23 Q1009 RMK A2980 CB S-SW,NW=

METAR RPMZ 190400Z 18006KT 160V220 9999 FEW016CB FEW017 31/23 Q1010 RMK A2983 CB S=

METAR RPMZ 190300Z VRB04KT 9999 FEW017TCU SCT300 31/23 Q1010 RMK A2983 TCU S,NW=

METAR RPMZ 190200Z 20004KT 150V280 9999 FEW017 SCT300 31/24 Q1011 RMK A2985=
METAR RPMZ 190100Z 19004KT 150V220 9999 FEW017 SCT300 30/24 Q1011 RMK A2985=
METAR RPMZ 190000Z VRB01KT 9999 FEW017 BKN300 30/24 Q1011 RMK A2985=
METAR RPMZ 182300Z 00000KT 9999 FEW017 BKN300 26/25 Q1010 RMK A2983=
METAR RPMZ 182200Z 04001KT 9999 FEW017 BKN300 24/24 Q1009 RMK A2980=
METAR RPMZ 182100Z 00000KT 9999 FEW017 SCT300 25/24 Q1009 RMK A2980=
METAR RPMZ 181800Z VRB01KT 9999 FEW017 BKN090 26/24 Q1010 RMK A2983=
METAR RPMZ 181500Z VRB02KT 9999 FEW017 BKN090 26/25 Q1012 RMK A2988=


RPVK (KLO) – KALIBO INTERNATIONAL AIRPORT

METAR RPVK 190900Z 28003KT 9999 -RA SCT016 BKN070 OVC240 27/26 Q1008 RMK A2977=

METAR RPVK 190800Z 30005KT 9000 -RA SCT016 BKN070 OVC240 27/26 Q1008 RMK A2977=

METAR RPVK 190700Z 27003KT 9999 VCSH SCT016 BKN070 OVC240 28/26 Q1008 RERA RMK A2977 VCSH ALQDS=

METAR RPVK 190600Z 27004KT 9999 -RA SCT016 BKN070 OVC240 26/26 Q1009 RMK A2980=

METAR RPVK 190500Z 36001KT 8000 RA SCT016 BKN070 OVC240 25/25 Q1010 RMK A2983=

METAR RPVK 190400Z 08002KT 9999 -RA SCT016 BKN070 OVC240 26/25 Q1011 RMK A2985=

METAR RPVK 190300Z 04012KT 9999 VCSH SCT016 BKN070 OVC240 26/25 Q1011 RERA RMK A2985 VCSH ALQDS=

METAR RPVK 190200Z 16002KT 9999 VCSH SCT016 BKN070 OVC240 28/27 Q1010 RMK A2983 VCSH ALQDS=
METAR RPVK 190100Z 00000KT 9999 VCSH SCT016 BKN070 OVC240 28/27 Q1010 RMK A2983 VCSH NW-SE,=
METAR RPVK 190000Z 20002KT 9999 VCSH SCT016 BKN070 OVC240 26/26 Q1010 RMK A2983 VCSH N-SE,NW=
METAR RPVK 182100Z AUTO 23003KT 5000 FEW072/// OVC085/// 25/25 Q1009=
METAR RPVK 181800Z AUTO VRB02KT 4800 OVC038/// 25/25 Q1009=
METAR RPVK 181700Z AUTO VRB01KT 4300 FEW036/// OVC120/// 26/26 Q1009=
METAR RPVK 181600Z AUTO 20001KT 4100 FEW062/// OVC100/// 26/26 Q1010=
METAR RPVK 181500Z AUTO 00000KT 4000 FEW059/// BKN069/// BKN088/// 26/26 Q1011=